sensor_id;sensor_type;location;lat;lon;timestamp;P1;durP1;ratioP1;P2;durP2;ratioP2
14754;SDS011;7469;50.906;6.952;2023-04-24T00:00:56;0.30;;;0.30;;
14754;SDS011;7469;50.906;6.952;2023-04-24T00:03:26;0.50;;;0.50;;
14754;SDS011;7469;50.906;6.952;2023-04-24T00:05:55;0.70;;;0.70;;
14754;SDS011;7469;50.906;6.952;2023-04-24T00:08:25;0.70;;;0.70;;
14754;SDS011;7469;50.906;6.952;2023-04-24T00:10:53;2.30;;;0.70;;
14754;SDS011;7469;50.906;6.952;2023-04-24T00:13:21;0.53;;;0.53;;
14754;SDS011;7469;50.906;6.952;2023-04-24T00:15:51;0.50;;;0.50;;
14754;SDS011;7469;50.906;6.952;2023-04-24T00:18:18;1.80;;;0.63;;
14754;SDS011;7469;50.906;6.952;2023-04-24T00:20:46;0.73;;;0.73;;
14754;SDS011;7469;50.906;6.952;2023-04-24T00:23:14;0.57;;;0.57;;
14754;SDS011;7469;50.906;6.952;2023-04-24T00:25:43;0.53;;;0.50;;
14754;SDS011;7469;50.906;6.952;2023-04-24T00:28:11;0.70;;;0.70;;
14754;SDS011;7469;50.906;6.952;2023-04-24T00:30:38;0.93;;;0.70;;
14754;SDS011;7469;50.906;6.952;2023-04-24T00:33:08;0.60;;;0.60;;
14754;SDS011;7469;50.906;6.952;2023-04-24T00:35:36;1.40;;;0.60;;
14754;SDS011;7469;50.906;6.952;2023-04-24T00:38:04;1.80;;;0.50;;
14754;SDS011;7469;50.906;6.952;2023-04-24T00:40:32;0.80;;;0.80;;
14754;SDS011;7469;50.906;6.952;2023-04-24T00:43:00;0.67;;;0.67;;
14754;SDS011;7469;50.906;6.952;2023-04-24T00:45:28;0.50;;;0.50;;
14754;SDS011;7469;50.906;6.952;2023-04-24T00:47:57;0.60;;;0.60;;
14754;SDS011;7469;50.906;6.952;2023-04-24T00:50:26;0.77;;;0.77;;
14754;SDS011;7469;50.906;6.952;2023-04-24T00:52:55;1.43;;;0.90;;
14754;SDS011;7469;50.906;6.952;2023-04-24T00:55:23;1.07;;;0.53;;
14754;SDS011;7469;50.906;6.952;2023-04-24T00:57:52;2.67;;;0.90;;
14754;SDS011;7469;50.906;6.952;2023-04-24T01:00:20;0.80;;;0.80;;
14754;SDS011;7469;50.906;6.952;2023-04-24T01:02:49;0.77;;;0.77;;
14754;SDS011;7469;50.906;6.952;2023-04-24T01:05:20;0.77;;;0.77;;
14754;SDS011;7469;50.906;6.952;2023-04-24T01:07:50;1.33;;;0.73;;
14754;SDS011;7469;50.906;6.952;2023-04-24T01:10:18;0.77;;;0.77;;
14754;SDS011;7469;50.906;6.952;2023-04-24T01:12:46;0.90;;;0.90;;
14754;SDS011;7469;50.906;6.952;2023-04-24T01:15:14;1.83;;;0.90;;
14754;SDS011;7469;50.906;6.952;2023-04-24T01:17:42;0.93;;;0.80;;
14754;SDS011;7469;50.906;6.952;2023-04-24T01:20:11;0.70;;;0.70;;
14754;SDS011;7469;50.906;6.952;2023-04-24T01:22:41;1.23;;;0.93;;
14754;SDS011;7469;50.906;6.952;2023-04-24T01:25:09;0.80;;;0.80;;
14754;SDS011;7469;50.906;6.952;2023-04-24T01:27:37;1.37;;;0.77;;
14754;SDS011;7469;50.906;6.952;2023-04-24T01:30:05;2.10;;;1.13;;
14754;SDS011;7469;50.906;6.952;2023-04-24T01:32:35;1.00;;;1.00;;
14754;SDS011;7469;50.906;6.952;2023-04-24T01:35:04;4.13;;;1.20;;
14754;SDS011;7469;50.906;6.952;2023-04-24T01:37:34;2.63;;;1.20;;
14754;SDS011;7469;50.906;6.952;2023-04-24T01:40:05;1.30;;;1.20;;
14754;SDS011;7469;50.906;6.952;2023-04-24T01:42:35;2.57;;;1.00;;
14754;SDS011;7469;50.906;6.952;2023-04-24T01:45:03;1.20;;;1.10;;
14754;SDS011;7469;50.906;6.952;2023-04-24T01:47:32;2.07;;;1.00;;
14754;SDS011;7469;50.906;6.952;2023-04-24T01:50:00;1.93;;;1.40;;
14754;SDS011;7469;50.906;6.952;2023-04-24T01:52:28;1.63;;;1.30;;
14754;SDS011;7469;50.906;6.952;2023-04-24T01:54:59;1.57;;;1.07;;
14754;SDS011;7469;50.906;6.952;2023-04-24T01:57:29;2.90;;;1.80;;
14754;SDS011;7469;50.906;6.952;2023-04-24T01:59:57;1.70;;;1.60;;
14754;SDS011;7469;50.906;6.952;2023-04-24T02:02:25;2.10;;;1.90;;
14754;SDS011;7469;50.906;6.952;2023-04-24T02:04:55;1.80;;;1.70;;
14754;SDS011;7469;50.906;6.952;2023-04-24T02:07:23;4.40;;;2.07;;
14754;SDS011;7469;50.906;6.952;2023-04-24T02:09:50;3.00;;;2.00;;
14754;SDS011;7469;50.906;6.952;2023-04-24T02:12:18;2.33;;;2.13;;
14754;SDS011;7469;50.906;6.952;2023-04-24T02:14:48;2.33;;;2.13;;
14754;SDS011;7469;50.906;6.952;2023-04-24T02:17:16;3.33;;;2.40;;
14754;SDS011;7469;50.906;6.952;2023-04-24T02:19:45;2.33;;;2.13;;
14754;SDS011;7469;50.906;6.952;2023-04-24T02:22:13;3.30;;;2.17;;
14754;SDS011;7469;50.906;6.952;2023-04-24T02:24:41;4.13;;;2.20;;
14754;SDS011;7469;50.906;6.952;2023-04-24T02:27:09;2.60;;;2.07;;
14754;SDS011;7469;50.906;6.952;2023-04-24T02:29:40;1.93;;;1.73;;
14754;SDS011;7469;50.906;6.952;2023-04-24T02:32:10;3.73;;;2.00;;
14754;SDS011;7469;50.906;6.952;2023-04-24T02:34:39;3.40;;;2.50;;
14754;SDS011;7469;50.906;6.952;2023-04-24T02:37:07;3.23;;;2.20;;
14754;SDS011;7469;50.906;6.952;2023-04-24T02:39:34;2.10;;;1.90;;
14754;SDS011;7469;50.906;6.952;2023-04-24T02:42:05;4.43;;;2.30;;
14754;SDS011;7469;50.906;6.952;2023-04-24T02:44:34;3.00;;;2.70;;
14754;SDS011;7469;50.906;6.952;2023-04-24T02:47:02;5.87;;;2.77;;
14754;SDS011;7469;50.906;6.952;2023-04-24T02:49:31;4.63;;;3.00;;
14754;SDS011;7469;50.906;6.952;2023-04-24T02:51:59;4.67;;;3.13;;
14754;SDS011;7469;50.906;6.952;2023-04-24T02:54:27;5.03;;;3.17;;
14754;SDS011;7469;50.906;6.952;2023-04-24T02:56:55;5.17;;;2.83;;
14754;SDS011;7469;50.906;6.952;2023-04-24T02:59:23;2.90;;;2.70;;
14754;SDS011;7469;50.906;6.952;2023-04-24T03:01:53;4.30;;;3.00;;
14754;SDS011;7469;50.906;6.952;2023-04-24T03:04:21;5.43;;;3.07;;
14754;SDS011;7469;50.906;6.952;2023-04-24T03:06:50;4.30;;;3.37;;
14754;SDS011;7469;50.906;6.952;2023-04-24T03:09:18;4.57;;;3.20;;
14754;SDS011;7469;50.906;6.952;2023-04-24T03:11:46;4.17;;;3.33;;
14754;SDS011;7469;50.906;6.952;2023-04-24T03:14:15;4.87;;;3.17;;
14754;SDS011;7469;50.906;6.952;2023-04-24T03:16:43;2.97;;;2.67;;
14754;SDS011;7469;50.906;6.952;2023-04-24T03:19:11;5.37;;;3.43;;
14754;SDS011;7469;50.906;6.952;2023-04-24T03:21:38;4.97;;;2.77;;
14754;SDS011;7469;50.906;6.952;2023-04-24T03:24:09;3.50;;;2.90;;
14754;SDS011;7469;50.906;6.952;2023-04-24T03:26:37;4.23;;;2.73;;
14754;SDS011;7469;50.906;6.952;2023-04-24T03:29:05;3.37;;;3.03;;
14754;SDS011;7469;50.906;6.952;2023-04-24T03:31:33;5.90;;;2.70;;
14754;SDS011;7469;50.906;6.952;2023-04-24T03:34:01;4.00;;;3.00;;
14754;SDS011;7469;50.906;6.952;2023-04-24T03:36:29;4.20;;;3.30;;
14754;SDS011;7469;50.906;6.952;2023-04-24T03:38:57;4.30;;;3.60;;
14754;SDS011;7469;50.906;6.952;2023-04-24T03:41:26;3.70;;;3.37;;
14754;SDS011;7469;50.906;6.952;2023-04-24T03:43:55;4.70;;;3.40;;
14754;SDS011;7469;50.906;6.952;2023-04-24T03:46:23;4.90;;;3.20;;
14754;SDS011;7469;50.906;6.952;2023-04-24T03:48:51;4.27;;;3.63;;
14754;SDS011;7469;50.906;6.952;2023-04-24T03:51:18;4.57;;;3.30;;
14754;SDS011;7469;50.906;6.952;2023-04-24T03:53:46;4.60;;;3.43;;
14754;SDS011;7469;50.906;6.952;2023-04-24T03:56:14;4.37;;;3.27;;
14754;SDS011;7469;50.906;6.952;2023-04-24T03:58:44;4.57;;;3.20;;
14754;SDS011;7469;50.906;6.952;2023-04-24T04:01:12;8.57;;;3.37;;
14754;SDS011;7469;50.906;6.952;2023-04-24T04:03:42;3.27;;;2.83;;
14754;SDS011;7469;50.906;6.952;2023-04-24T04:06:10;3.10;;;2.80;;
14754;SDS011;7469;50.906;6.952;2023-04-24T04:08:39;5.53;;;3.07;;
14754;SDS011;7469;50.906;6.952;2023-04-24T04:11:07;3.90;;;3.03;;
14754;SDS011;7469;50.906;6.952;2023-04-24T04:13:35;4.97;;;3.30;;
14754;SDS011;7469;50.906;6.952;2023-04-24T04:16:04;4.70;;;3.20;;
14754;SDS011;7469;50.906;6.952;2023-04-24T04:18:32;3.17;;;2.87;;
14754;SDS011;7469;50.906;6.952;2023-04-24T04:21:01;3.70;;;3.07;;
14754;SDS011;7469;50.906;6.952;2023-04-24T04:23:28;3.73;;;3.03;;
14754;SDS011;7469;50.906;6.952;2023-04-24T04:25:58;3.30;;;3.00;;
14754;SDS011;7469;50.906;6.952;2023-04-24T04:28:26;2.70;;;2.50;;
14754;SDS011;7469;50.906;6.952;2023-04-24T04:30:54;3.70;;;2.60;;
14754;SDS011;7469;50.906;6.952;2023-04-24T04:33:25;3.30;;;2.50;;
14754;SDS011;7469;50.906;6.952;2023-04-24T04:35:53;4.03;;;2.73;;
14754;SDS011;7469;50.906;6.952;2023-04-24T04:38:23;4.60;;;2.80;;
14754;SDS011;7469;50.906;6.952;2023-04-24T04:40:52;4.17;;;3.00;;
14754;SDS011;7469;50.906;6.952;2023-04-24T04:43:22;4.80;;;2.93;;
14754;SDS011;7469;50.906;6.952;2023-04-24T04:45:50;3.87;;;2.93;;
14754;SDS011;7469;50.906;6.952;2023-04-24T04:48:20;5.70;;;2.77;;
14754;SDS011;7469;50.906;6.952;2023-04-24T04:50:50;3.50;;;3.03;;
14754;SDS011;7469;50.906;6.952;2023-04-24T04:53:20;4.23;;;3.30;;
14754;SDS011;7469;50.906;6.952;2023-04-24T04:55:48;4.17;;;2.93;;
14754;SDS011;7469;50.906;6.952;2023-04-24T04:58:16;5.47;;;3.40;;
14754;SDS011;7469;50.906;6.952;2023-04-24T05:00:44;7.93;;;3.20;;
14754;SDS011;7469;50.906;6.952;2023-04-24T05:03:12;7.03;;;2.93;;
14754;SDS011;7469;50.906;6.952;2023-04-24T05:05:43;4.93;;;3.27;;
14754;SDS011;7469;50.906;6.952;2023-04-24T05:08:12;8.50;;;3.30;;
14754;SDS011;7469;50.906;6.952;2023-04-24T05:10:43;4.63;;;3.27;;
14754;SDS011;7469;50.906;6.952;2023-04-24T05:13:11;5.13;;;3.00;;
14754;SDS011;7469;50.906;6.952;2023-04-24T05:15:39;4.03;;;3.10;;
14754;SDS011;7469;50.906;6.952;2023-04-24T05:18:07;4.13;;;3.00;;
14754;SDS011;7469;50.906;6.952;2023-04-24T05:20:35;5.83;;;3.27;;
14754;SDS011;7469;50.906;6.952;2023-04-24T05:23:03;3.53;;;3.10;;
14754;SDS011;7469;50.906;6.952;2023-04-24T05:25:32;4.23;;;3.10;;
14754;SDS011;7469;50.906;6.952;2023-04-24T05:28:01;4.97;;;2.93;;
14754;SDS011;7469;50.906;6.952;2023-04-24T05:30:29;3.60;;;2.93;;
14754;SDS011;7469;50.906;6.952;2023-04-24T05:32:57;4.67;;;3.10;;
14754;SDS011;7469;50.906;6.952;2023-04-24T05:35:27;4.57;;;2.93;;
14754;SDS011;7469;50.906;6.952;2023-04-24T05:37:56;5.47;;;2.93;;
14754;SDS011;7469;50.906;6.952;2023-04-24T05:40:24;4.47;;;2.83;;
14754;SDS011;7469;50.906;6.952;2023-04-24T05:42:53;8.37;;;3.63;;
14754;SDS011;7469;50.906;6.952;2023-04-24T05:45:21;3.40;;;2.90;;
14754;SDS011;7469;50.906;6.952;2023-04-24T05:47:49;4.37;;;3.57;;
14754;SDS011;7469;50.906;6.952;2023-04-24T05:50:18;4.37;;;2.93;;
14754;SDS011;7469;50.906;6.952;2023-04-24T05:52:46;4.63;;;3.30;;
14754;SDS011;7469;50.906;6.952;2023-04-24T05:55:14;4.10;;;3.50;;
14754;SDS011;7469;50.906;6.952;2023-04-24T05:57:44;5.97;;;3.73;;
14754;SDS011;7469;50.906;6.952;2023-04-24T06:00:15;5.00;;;3.73;;
14754;SDS011;7469;50.906;6.952;2023-04-24T06:02:44;4.20;;;3.13;;
14754;SDS011;7469;50.906;6.952;2023-04-24T06:05:13;4.87;;;3.27;;
14754;SDS011;7469;50.906;6.952;2023-04-24T06:07:42;4.93;;;2.97;;
14754;SDS011;7469;50.906;6.952;2023-04-24T06:10:10;4.17;;;3.00;;
14754;SDS011;7469;50.906;6.952;2023-04-24T06:12:37;5.70;;;2.97;;
14754;SDS011;7469;50.906;6.952;2023-04-24T06:15:06;4.47;;;2.90;;
14754;SDS011;7469;50.906;6.952;2023-04-24T06:17:36;3.20;;;2.90;;
14754;SDS011;7469;50.906;6.952;2023-04-24T06:20:04;6.40;;;2.80;;
14754;SDS011;7469;50.906;6.952;2023-04-24T06:22:34;3.33;;;2.83;;
14754;SDS011;7469;50.906;6.952;2023-04-24T06:25:02;3.47;;;2.70;;
14754;SDS011;7469;50.906;6.952;2023-04-24T06:27:30;3.50;;;3.07;;
14754;SDS011;7469;50.906;6.952;2023-04-24T06:29:58;3.40;;;2.40;;
14754;SDS011;7469;50.906;6.952;2023-04-24T06:32:26;4.73;;;2.50;;
14754;SDS011;7469;50.906;6.952;2023-04-24T06:34:56;2.07;;;1.73;;
14754;SDS011;7469;50.906;6.952;2023-04-24T06:37:24;2.03;;;1.83;;
14754;SDS011;7469;50.906;6.952;2023-04-24T06:39:53;2.63;;;2.10;;
14754;SDS011;7469;50.906;6.952;2023-04-24T06:42:21;4.70;;;1.80;;
14754;SDS011;7469;50.906;6.952;2023-04-24T06:44:50;3.70;;;1.90;;
14754;SDS011;7469;50.906;6.952;2023-04-24T06:47:18;2.13;;;1.77;;
14754;SDS011;7469;50.906;6.952;2023-04-24T06:49:46;3.23;;;1.50;;
14754;SDS011;7469;50.906;6.952;2023-04-24T06:52:15;3.57;;;1.20;;
14754;SDS011;7469;50.906;6.952;2023-04-24T06:54:43;1.70;;;1.30;;
14754;SDS011;7469;50.906;6.952;2023-04-24T06:57:11;2.33;;;1.40;;
14754;SDS011;7469;50.906;6.952;2023-04-24T06:59:39;2.47;;;1.40;;
14754;SDS011;7469;50.906;6.952;2023-04-24T07:02:08;3.23;;;1.30;;
14754;SDS011;7469;50.906;6.952;2023-04-24T07:04:36;1.30;;;1.20;;
14754;SDS011;7469;50.906;6.952;2023-04-24T07:07:04;3.60;;;1.30;;
14754;SDS011;7469;50.906;6.952;2023-04-24T07:09:35;1.77;;;1.10;;
14754;SDS011;7469;50.906;6.952;2023-04-24T07:12:06;1.77;;;1.40;;
14754;SDS011;7469;50.906;6.952;2023-04-24T07:14:34;1.70;;;1.20;;
14754;SDS011;7469;50.906;6.952;2023-04-24T07:17:02;1.27;;;1.17;;
14754;SDS011;7469;50.906;6.952;2023-04-24T07:19:30;4.90;;;1.20;;
14754;SDS011;7469;50.906;6.952;2023-04-24T07:21:58;2.03;;;1.23;;
14754;SDS011;7469;50.906;6.952;2023-04-24T07:24:26;1.80;;;1.40;;
14754;SDS011;7469;50.906;6.952;2023-04-24T07:26:57;1.30;;;1.23;;
14754;SDS011;7469;50.906;6.952;2023-04-24T07:29:27;2.67;;;1.67;;
14754;SDS011;7469;50.906;6.952;2023-04-24T07:31:55;1.70;;;1.40;;
14754;SDS011;7469;50.906;6.952;2023-04-24T07:34:23;1.40;;;1.30;;
14754;SDS011;7469;50.906;6.952;2023-04-24T07:36:51;2.77;;;1.63;;
14754;SDS011;7469;50.906;6.952;2023-04-24T07:39:19;2.13;;;1.83;;
14754;SDS011;7469;50.906;6.952;2023-04-24T07:41:47;2.97;;;1.30;;
14754;SDS011;7469;50.906;6.952;2023-04-24T07:44:17;1.03;;;0.90;;
14754;SDS011;7469;50.906;6.952;2023-04-24T07:46:44;0.90;;;0.90;;
14754;SDS011;7469;50.906;6.952;2023-04-24T07:49:12;1.10;;;0.97;;
14754;SDS011;7469;50.906;6.952;2023-04-24T07:51:44;1.33;;;0.80;;
14754;SDS011;7469;50.906;6.952;2023-04-24T07:54:12;0.70;;;0.70;;
14754;SDS011;7469;50.906;6.952;2023-04-24T07:56:40;1.67;;;0.67;;
14754;SDS011;7469;50.906;6.952;2023-04-24T07:59:09;1.03;;;0.77;;
14754;SDS011;7469;50.906;6.952;2023-04-24T08:01:38;2.67;;;0.83;;
14754;SDS011;7469;50.906;6.952;2023-04-24T08:04:08;0.90;;;0.90;;
14754;SDS011;7469;50.906;6.952;2023-04-24T08:06:37;0.60;;;0.60;;
14754;SDS011;7469;50.906;6.952;2023-04-24T08:09:05;0.80;;;0.80;;
14754;SDS011;7469;50.906;6.952;2023-04-24T08:11:33;0.80;;;0.80;;
14754;SDS011;7469;50.906;6.952;2023-04-24T08:14:01;0.70;;;0.70;;
14754;SDS011;7469;50.906;6.952;2023-04-24T08:16:29;1.50;;;0.80;;
14754;SDS011;7469;50.906;6.952;2023-04-24T08:18:58;1.13;;;1.00;;
14754;SDS011;7469;50.906;6.952;2023-04-24T08:21:26;2.27;;;0.90;;
14754;SDS011;7469;50.906;6.952;2023-04-24T08:23:54;1.87;;;1.10;;
14754;SDS011;7469;50.906;6.952;2023-04-24T08:26:22;0.77;;;0.70;;
14754;SDS011;7469;50.906;6.952;2023-04-24T08:28:50;1.20;;;1.00;;
14754;SDS011;7469;50.906;6.952;2023-04-24T08:31:18;1.13;;;0.97;;
14754;SDS011;7469;50.906;6.952;2023-04-24T08:33:46;0.87;;;0.80;;
14754;SDS011;7469;50.906;6.952;2023-04-24T08:36:16;1.43;;;0.77;;
14754;SDS011;7469;50.906;6.952;2023-04-24T08:38:44;0.53;;;0.53;;
14754;SDS011;7469;50.906;6.952;2023-04-24T08:41:12;0.60;;;0.60;;
14754;SDS011;7469;50.906;6.952;2023-04-24T08:43:42;0.50;;;0.50;;
14754;SDS011;7469;50.906;6.952;2023-04-24T08:46:10;0.77;;;0.60;;
14754;SDS011;7469;50.906;6.952;2023-04-24T08:48:40;0.80;;;0.80;;
14754;SDS011;7469;50.906;6.952;2023-04-24T08:51:08;2.17;;;1.20;;
14754;SDS011;7469;50.906;6.952;2023-04-24T08:53:38;1.33;;;1.07;;
14754;SDS011;7469;50.906;6.952;2023-04-24T08:56:07;0.97;;;0.97;;
14754;SDS011;7469;50.906;6.952;2023-04-24T08:58:35;2.20;;;1.40;;
14754;SDS011;7469;50.906;6.952;2023-04-24T09:01:03;1.20;;;1.10;;
14754;SDS011;7469;50.906;6.952;2023-04-24T09:03:33;2.77;;;1.67;;
14754;SDS011;7469;50.906;6.952;2023-04-24T09:06:02;2.73;;;1.70;;
14754;SDS011;7469;50.906;6.952;2023-04-24T09:08:31;1.93;;;1.60;;
14754;SDS011;7469;50.906;6.952;2023-04-24T09:11:04;3.37;;;2.10;;
14754;SDS011;7469;50.906;6.952;2023-04-24T09:13:32;2.80;;;1.80;;
14754;SDS011;7469;50.906;6.952;2023-04-24T09:16:01;2.60;;;2.07;;
14754;SDS011;7469;50.906;6.952;2023-04-24T09:18:29;3.60;;;1.80;;
14754;SDS011;7469;50.906;6.952;2023-04-24T09:20:57;2.67;;;2.03;;
14754;SDS011;7469;50.906;6.952;2023-04-24T09:23:27;3.23;;;2.20;;
14754;SDS011;7469;50.906;6.952;2023-04-24T09:25:56;3.47;;;1.90;;
14754;SDS011;7469;50.906;6.952;2023-04-24T09:28:30;4.70;;;2.67;;
14754;SDS011;7469;50.906;6.952;2023-04-24T09:31:02;2.20;;;2.00;;
14754;SDS011;7469;50.906;6.952;2023-04-24T09:33:35;3.77;;;2.63;;
14754;SDS011;7469;50.906;6.952;2023-04-24T09:36:03;3.63;;;2.53;;
14754;SDS011;7469;50.906;6.952;2023-04-24T09:38:33;2.90;;;2.47;;
14754;SDS011;7469;50.906;6.952;2023-04-24T09:41:02;4.90;;;2.93;;
14754;SDS011;7469;50.906;6.952;2023-04-24T09:43:35;3.20;;;2.47;;
14754;SDS011;7469;50.906;6.952;2023-04-24T09:46:06;3.07;;;2.77;;
14754;SDS011;7469;50.906;6.952;2023-04-24T09:48:36;4.03;;;2.77;;
14754;SDS011;7469;50.906;6.952;2023-04-24T09:51:05;4.53;;;2.63;;
14754;SDS011;7469;50.906;6.952;2023-04-24T09:53:36;5.70;;;2.73;;
14754;SDS011;7469;50.906;6.952;2023-04-24T09:56:06;4.43;;;2.70;;
14754;SDS011;7469;50.906;6.952;2023-04-24T09:58:36;4.00;;;2.73;;
14754;SDS011;7469;50.906;6.952;2023-04-24T10:01:04;4.43;;;2.90;;
14754;SDS011;7469;50.906;6.952;2023-04-24T10:03:33;3.50;;;2.80;;
14754;SDS011;7469;50.906;6.952;2023-04-24T10:06:01;3.47;;;2.80;;
14754;SDS011;7469;50.906;6.952;2023-04-24T10:08:34;4.97;;;2.53;;
14754;SDS011;7469;50.906;6.952;2023-04-24T10:11:04;5.10;;;2.70;;
14754;SDS011;7469;50.906;6.952;2023-04-24T10:13:33;5.23;;;2.57;;
14754;SDS011;7469;50.906;6.952;2023-04-24T10:16:03;5.20;;;2.70;;
14754;SDS011;7469;50.906;6.952;2023-04-24T10:18:32;4.37;;;2.50;;
14754;SDS011;7469;50.906;6.952;2023-04-24T10:21:03;2.47;;;2.10;;
14754;SDS011;7469;50.906;6.952;2023-04-24T10:23:31;3.17;;;2.40;;
14754;SDS011;7469;50.906;6.952;2023-04-24T10:25:59;5.10;;;2.17;;
14754;SDS011;7469;50.906;6.952;2023-04-24T10:28:28;4.23;;;2.30;;
14754;SDS011;7469;50.906;6.952;2023-04-24T10:30:59;2.80;;;1.90;;
14754;SDS011;7469;50.906;6.952;2023-04-24T10:33:29;4.17;;;2.20;;
14754;SDS011;7469;50.906;6.952;2023-04-24T10:35:58;5.43;;;2.10;;
14754;SDS011;7469;50.906;6.952;2023-04-24T10:38:27;4.50;;;2.20;;
14754;SDS011;7469;50.906;6.952;2023-04-24T10:41:06;3.00;;;1.90;;
14754;SDS011;7469;50.906;6.952;2023-04-24T10:43:35;4.23;;;2.43;;
14754;SDS011;7469;50.906;6.952;2023-04-24T10:46:04;3.83;;;2.17;;
14754;SDS011;7469;50.906;6.952;2023-04-24T10:48:35;2.83;;;2.07;;
14754;SDS011;7469;50.906;6.952;2023-04-24T10:51:10;5.10;;;2.63;;
14754;SDS011;7469;50.906;6.952;2023-04-24T10:53:39;3.90;;;2.50;;
14754;SDS011;7469;50.906;6.952;2023-04-24T10:56:07;6.27;;;1.90;;
14754;SDS011;7469;50.906;6.952;2023-04-24T10:58:37;4.90;;;2.17;;
14754;SDS011;7469;50.906;6.952;2023-04-24T11:01:06;3.73;;;2.20;;
14754;SDS011;7469;50.906;6.952;2023-04-24T11:03:36;4.23;;;2.20;;
14754;SDS011;7469;50.906;6.952;2023-04-24T11:06:08;4.30;;;2.60;;
14754;SDS011;7469;50.906;6.952;2023-04-24T11:08:37;4.73;;;2.50;;
14754;SDS011;7469;50.906;6.952;2023-04-24T11:11:10;3.50;;;2.33;;
14754;SDS011;7469;50.906;6.952;2023-04-24T11:16:32;3.17;;;2.30;;
14754;SDS011;7469;50.906;6.952;2023-04-24T11:19:04;5.60;;;2.43;;
14754;SDS011;7469;50.906;6.952;2023-04-24T11:21:39;3.13;;;2.17;;
14754;SDS011;7469;50.906;6.952;2023-04-24T11:24:22;5.60;;;2.30;;
14754;SDS011;7469;50.906;6.952;2023-04-24T11:27:09;5.73;;;2.30;;
14754;SDS011;7469;50.906;6.952;2023-04-24T11:29:41;2.77;;;2.00;;
14754;SDS011;7469;50.906;6.952;2023-04-24T11:32:15;7.43;;;2.57;;
14754;SDS011;7469;50.906;6.952;2023-04-24T11:34:52;4.77;;;2.20;;
14754;SDS011;7469;50.906;6.952;2023-04-24T11:37:21;5.20;;;2.43;;
14754;SDS011;7469;50.906;6.952;2023-04-24T11:39:54;3.67;;;2.30;;
14754;SDS011;7469;50.906;6.952;2023-04-24T11:42:24;4.73;;;2.37;;
14754;SDS011;7469;50.906;6.952;2023-04-24T11:44:53;3.63;;;2.00;;
14754;SDS011;7469;50.906;6.952;2023-04-24T11:47:29;4.83;;;2.33;;
14754;SDS011;7469;50.906;6.952;2023-04-24T11:50:01;5.73;;;2.63;;
14754;SDS011;7469;50.906;6.952;2023-04-24T11:52:30;6.30;;;2.50;;
14754;SDS011;7469;50.906;6.952;2023-04-24T11:54:59;6.07;;;2.60;;
14754;SDS011;7469;50.906;6.952;2023-04-24T11:57:28;2.70;;;2.20;;
14754;SDS011;7469;50.906;6.952;2023-04-24T11:59:59;4.37;;;2.33;;
14754;SDS011;7469;50.906;6.952;2023-04-24T12:02:30;5.03;;;2.60;;
14754;SDS011;7469;50.906;6.952;2023-04-24T12:05:00;5.37;;;1.93;;
14754;SDS011;7469;50.906;6.952;2023-04-24T12:07:28;3.23;;;2.10;;
14754;SDS011;7469;50.906;6.952;2023-04-24T12:09:57;7.83;;;2.30;;
14754;SDS011;7469;50.906;6.952;2023-04-24T12:12:27;3.23;;;2.33;;
14754;SDS011;7469;50.906;6.952;2023-04-24T12:14:56;4.53;;;2.20;;
14754;SDS011;7469;50.906;6.952;2023-04-24T12:17:26;3.47;;;2.20;;
14754;SDS011;7469;50.906;6.952;2023-04-24T12:19:58;5.13;;;2.10;;
14754;SDS011;7469;50.906;6.952;2023-04-24T12:22:42;7.60;;;2.60;;
14754;SDS011;7469;50.906;6.952;2023-04-24T12:25:11;6.10;;;2.60;;
14754;SDS011;7469;50.906;6.952;2023-04-24T12:27:39;6.43;;;2.37;;
14754;SDS011;7469;50.906;6.952;2023-04-24T12:30:10;7.07;;;2.40;;
14754;SDS011;7469;50.906;6.952;2023-04-24T12:32:41;5.63;;;2.53;;
14754;SDS011;7469;50.906;6.952;2023-04-24T12:35:11;5.07;;;2.57;;
14754;SDS011;7469;50.906;6.952;2023-04-24T12:37:41;5.17;;;2.47;;
14754;SDS011;7469;50.906;6.952;2023-04-24T12:40:13;5.63;;;2.50;;
14754;SDS011;7469;50.906;6.952;2023-04-24T12:42:44;7.47;;;2.90;;
14754;SDS011;7469;50.906;6.952;2023-04-24T12:45:14;6.30;;;2.80;;
14754;SDS011;7469;50.906;6.952;2023-04-24T12:47:45;4.33;;;2.50;;
14754;SDS011;7469;50.906;6.952;2023-04-24T12:50:14;4.20;;;2.27;;
14754;SDS011;7469;50.906;6.952;2023-04-24T12:52:43;5.63;;;2.17;;
14754;SDS011;7469;50.906;6.952;2023-04-24T12:55:11;4.67;;;2.27;;
14754;SDS011;7469;50.906;6.952;2023-04-24T12:57:39;6.63;;;2.60;;
14754;SDS011;7469;50.906;6.952;2023-04-24T13:00:08;7.33;;;2.67;;
14754;SDS011;7469;50.906;6.952;2023-04-24T13:02:36;3.83;;;2.20;;
14754;SDS011;7469;50.906;6.952;2023-04-24T13:05:05;7.30;;;2.60;;
14754;SDS011;7469;50.906;6.952;2023-04-24T13:07:34;7.57;;;2.50;;
14754;SDS011;7469;50.906;6.952;2023-04-24T13:10:02;3.20;;;2.50;;
14754;SDS011;7469;50.906;6.952;2023-04-24T13:12:30;3.53;;;2.30;;
14754;SDS011;7469;50.906;6.952;2023-04-24T13:14:58;4.63;;;2.60;;
14754;SDS011;7469;50.906;6.952;2023-04-24T13:17:26;7.83;;;2.70;;
14754;SDS011;7469;50.906;6.952;2023-04-24T13:19:55;6.53;;;2.67;;
14754;SDS011;7469;50.906;6.952;2023-04-24T13:22:23;8.53;;;2.47;;
14754;SDS011;7469;50.906;6.952;2023-04-24T13:24:52;7.87;;;2.73;;
14754;SDS011;7469;50.906;6.952;2023-04-24T13:27:20;11.87;;;3.40;;
14754;SDS011;7469;50.906;6.952;2023-04-24T13:29:48;4.10;;;2.90;;
14754;SDS011;7469;50.906;6.952;2023-04-24T13:32:17;8.70;;;3.77;;
14754;SDS011;7469;50.906;6.952;2023-04-24T13:34:45;7.20;;;2.50;;
14754;SDS011;7469;50.906;6.952;2023-04-24T13:37:13;10.70;;;3.63;;
14754;SDS011;7469;50.906;6.952;2023-04-24T13:39:41;6.10;;;3.00;;
14754;SDS011;7469;50.906;6.952;2023-04-24T13:42:10;3.77;;;2.83;;
14754;SDS011;7469;50.906;6.952;2023-04-24T13:44:39;5.23;;;3.20;;
14754;SDS011;7469;50.906;6.952;2023-04-24T13:47:08;7.37;;;3.40;;
14754;SDS011;7469;50.906;6.952;2023-04-24T13:49:44;8.67;;;2.90;;
14754;SDS011;7469;50.906;6.952;2023-04-24T13:52:12;6.13;;;2.87;;
14754;SDS011;7469;50.906;6.952;2023-04-24T13:54:40;7.13;;;2.77;;
14754;SDS011;7469;50.906;6.952;2023-04-24T13:57:08;6.60;;;2.87;;
14754;SDS011;7469;50.906;6.952;2023-04-24T13:59:38;9.40;;;3.33;;
14754;SDS011;7469;50.906;6.952;2023-04-24T14:02:06;9.53;;;2.87;;
14754;SDS011;7469;50.906;6.952;2023-04-24T14:04:34;7.60;;;3.40;;
14754;SDS011;7469;50.906;6.952;2023-04-24T14:07:02;5.17;;;3.00;;
14754;SDS011;7469;50.906;6.952;2023-04-24T14:09:30;5.00;;;3.33;;
14754;SDS011;7469;50.906;6.952;2023-04-24T14:11:58;6.47;;;2.70;;
14754;SDS011;7469;50.906;6.952;2023-04-24T14:14:29;6.50;;;3.50;;
14754;SDS011;7469;50.906;6.952;2023-04-24T14:16:57;6.57;;;2.80;;
14754;SDS011;7469;50.906;6.952;2023-04-24T14:19:25;7.13;;;2.63;;
14754;SDS011;7469;50.906;6.952;2023-04-24T14:21:54;5.27;;;2.60;;
14754;SDS011;7469;50.906;6.952;2023-04-24T14:24:24;4.23;;;2.40;;
14754;SDS011;7469;50.906;6.952;2023-04-24T14:26:52;3.17;;;2.27;;
14754;SDS011;7469;50.906;6.952;2023-04-24T14:29:20;3.67;;;2.30;;
14754;SDS011;7469;50.906;6.952;2023-04-24T14:31:51;6.13;;;2.50;;
14754;SDS011;7469;50.906;6.952;2023-04-24T14:34:19;5.60;;;2.57;;
14754;SDS011;7469;50.906;6.952;2023-04-24T14:36:47;5.60;;;2.90;;
14754;SDS011;7469;50.906;6.952;2023-04-24T14:39:15;5.57;;;2.17;;
14754;SDS011;7469;50.906;6.952;2023-04-24T14:41:43;3.83;;;2.60;;
14754;SDS011;7469;50.906;6.952;2023-04-24T14:44:11;6.73;;;2.57;;
14754;SDS011;7469;50.906;6.952;2023-04-24T14:46:39;4.73;;;2.60;;
14754;SDS011;7469;50.906;6.952;2023-04-24T14:49:09;5.47;;;2.90;;
14754;SDS011;7469;50.906;6.952;2023-04-24T14:51:38;2.87;;;2.23;;
14754;SDS011;7469;50.906;6.952;2023-04-24T14:54:06;5.70;;;2.53;;
14754;SDS011;7469;50.906;6.952;2023-04-24T14:56:34;3.97;;;2.30;;
14754;SDS011;7469;50.906;6.952;2023-04-24T14:59:03;4.67;;;2.30;;
14754;SDS011;7469;50.906;6.952;2023-04-24T15:01:31;4.97;;;2.40;;
14754;SDS011;7469;50.906;6.952;2023-04-24T15:03:59;5.03;;;2.40;;
14754;SDS011;7469;50.906;6.952;2023-04-24T15:06:29;5.93;;;3.03;;
14754;SDS011;7469;50.906;6.952;2023-04-24T15:08:58;4.57;;;2.60;;
14754;SDS011;7469;50.906;6.952;2023-04-24T15:11:26;4.67;;;2.40;;
14754;SDS011;7469;50.906;6.952;2023-04-24T15:13:54;6.57;;;2.93;;